Time;durP1;ratioP1;P1;durP2;ratioP2;P2;SDS_P1;SDS_P2;PMS_P1;PMS_P2;Temp;Humidity;BMP_temperature;BMP_pressure;BME280_temperature;BME280_humidity;BME280_pressure;Samples;Min_cycle;Max_cycle;Signal;HPM_P1;HPM_P2
2023/12/26 00:02:11;;;;;;;9.02;1.20;;;;;;;;;;5096143;28;20028;-65
2023/12/26 00:04:36;;;;;;;8.27;1.13;;;;;;;;;;5080131;28;20036;-66
2023/12/26 00:07:02;;;;;;;6.53;1.30;;;;;;;;;;5089719;28;20032;-67
2023/12/26 00:09:27;;;;;;;4.90;1.20;;;;;;;;;;5090386;28;20061;-66
2023/12/26 00:11:53;;;;;;;9.45;1.92;;;;;;;;;;5091729;28;20386;-66
2023/12/26 00:14:18;;;;;;;5.80;1.20;;;;;;;;;;5089332;28;20090;-67
2023/12/26 00:16:43;;;;;;;6.40;1.02;;;;;;;;;;5087860;28;20092;-67
2023/12/26 00:19:09;;;;;;;5.65;1.02;;;;;;;;;;5089803;28;20116;-67
2023/12/26 00:21:37;;;;;;;6.57;1.30;;;;;;;;;;5090312;28;20392;-68
2023/12/26 00:24:03;;;;;;;5.07;1.30;;;;;;;;;;5090083;28;20111;-67
2023/12/26 00:26:28;;;;;;;13.05;1.38;;;;;;;;;;5089568;28;20116;-68
2023/12/26 00:28:53;;;;;;;4.43;0.90;;;;;;;;;;5090363;28;20511;-67
2023/12/26 00:31:18;;;;;;;10.70;1.67;;;;;;;;;;5089846;28;20032;-66
2023/12/26 00:33:44;;;;;;;6.22;0.82;;;;;;;;;;5090428;28;20128;-65
2023/12/26 00:36:13;;;;;;;8.13;1.13;;;;;;;;;;5089893;28;20061;-68
2023/12/26 00:38:39;;;;;;;9.18;1.48;;;;;;;;;;5090781;28;20160;-67
2023/12/26 00:41:05;;;;;;;8.80;1.15;;;;;;;;;;5095734;28;20466;-67
2023/12/26 00:43:30;;;;;;;10.93;1.60;;;;;;;;;;5088926;28;20035;-67
2023/12/26 00:45:56;;;;;;;11.20;1.50;;;;;;;;;;5090262;28;20032;-67
2023/12/26 00:48:21;;;;;;;10.52;1.55;;;;;;;;;;5089830;28;20028;-67
2023/12/26 00:50:47;;;;;;;9.38;1.83;;;;;;;;;;5092893;28;20039;-67
2023/12/26 00:53:12;;;;;;;12.95;1.80;;;;;;;;;;5096481;28;20459;-66
2023/12/26 00:55:37;;;;;;;10.38;1.60;;;;;;;;;;5094628;28;20105;-66
2023/12/26 00:58:03;;;;;;;8.57;1.80;;;;;;;;;;5089683;28;20042;-67
2023/12/26 01:00:29;;;;;;;9.27;1.58;;;;;;;;;;5090753;28;20042;-66
2023/12/26 01:02:54;;;;;;;14.27;1.50;;;;;;;;;;5071718;28;20035;-67
2023/12/26 01:05:20;;;;;;;14.15;1.50;;;;;;;;;;5073692;28;20043;-67
2023/12/26 01:07:45;;;;;;;5.45;1.33;;;;;;;;;;5072924;28;20032;-67
2023/12/26 01:10:11;;;;;;;7.95;1.25;;;;;;;;;;5099985;28;20035;-67
2023/12/26 01:12:36;;;;;;;12.25;1.55;;;;;;;;;;5077851;28;20089;-67
2023/12/26 01:15:02;;;;;;;8.00;1.67;;;;;;;;;;5093385;28;20036;-67
2023/12/26 01:17:27;;;;;;;8.07;2.00;;;;;;;;;;5093704;28;20042;-67
2023/12/26 01:19:53;;;;;;;8.95;1.40;;;;;;;;;;5093750;28;20040;-66
2023/12/26 01:22:18;;;;;;;4.13;0.93;;;;;;;;;;5093519;28;20092;-67
2023/12/26 01:24:43;;;;;;;12.50;1.48;;;;;;;;;;5093250;28;20036;-67
2023/12/26 01:27:09;;;;;;;6.35;1.40;;;;;;;;;;5093257;28;20048;-68
2023/12/26 01:29:34;;;;;;;14.13;1.63;;;;;;;;;;5093687;28;20058;-66
2023/12/26 01:31:59;;;;;;;6.90;1.20;;;;;;;;;;5093375;28;20028;-66
2023/12/26 01:34:25;;;;;;;9.05;1.05;;;;;;;;;;5093566;28;20050;-66
2023/12/26 01:36:50;;;;;;;13.88;1.30;;;;;;;;;;5075152;28;20035;-67
2023/12/26 01:39:16;;;;;;;8.73;1.35;;;;;;;;;;5093006;28;20077;-67
2023/12/26 01:41:41;;;;;;;9.10;2.47;;;;;;;;;;5093859;28;20044;-67
2023/12/26 01:44:07;;;;;;;11.98;1.40;;;;;;;;;;5092491;28;20096;-66
2023/12/26 01:46:32;;;;;;;7.43;1.50;;;;;;;;;;5093227;28;20111;-67
2023/12/26 01:48:58;;;;;;;8.77;1.85;;;;;;;;;;5092962;28;20520;-66
2023/12/26 01:51:25;;;;;;;10.23;2.58;;;;;;;;;;5080216;28;20175;-66
2023/12/26 01:53:50;;;;;;;8.68;1.45;;;;;;;;;;5093371;28;20032;-68
2023/12/26 01:56:16;;;;;;;9.27;1.52;;;;;;;;;;5092732;28;20035;-67
2023/12/26 01:58:43;;;;;;;10.10;2.38;;;;;;;;;;5089885;28;20464;-67
2023/12/26 02:01:09;;;;;;;9.35;1.58;;;;;;;;;;5077470;28;20032;-67
2023/12/26 02:03:34;;;;;;;13.27;2.03;;;;;;;;;;5092328;28;20047;-66
2023/12/26 02:06:00;;;;;;;6.88;1.30;;;;;;;;;;5093022;28;20548;-66
2023/12/26 02:08:26;;;;;;;9.52;1.23;;;;;;;;;;5074217;28;20407;-67
2023/12/26 02:10:51;;;;;;;7.55;0.82;;;;;;;;;;5093030;28;20054;-67
2023/12/26 02:13:17;;;;;;;11.80;1.55;;;;;;;;;;5092851;28;20124;-67
2023/12/26 02:15:42;;;;;;;8.48;1.70;;;;;;;;;;5092258;28;20063;-67
2023/12/26 02:18:08;;;;;;;9.95;1.13;;;;;;;;;;5092608;28;20047;-66
2023/12/26 02:20:33;;;;;;;8.30;1.50;;;;;;;;;;5077386;28;20044;-67
2023/12/26 02:22:59;;;;;;;4.43;1.23;;;;;;;;;;5092010;28;20110;-67
2023/12/26 02:25:24;;;;;;;14.23;1.60;;;;;;;;;;5092821;28;20035;-66
2023/12/26 02:27:50;;;;;;;6.90;1.23;;;;;;;;;;5074398;28;20437;-67
2023/12/26 02:30:15;;;;;;;15.07;1.48;;;;;;;;;;5074678;28;20024;-67
2023/12/26 02:32:42;;;;;;;12.27;1.80;;;;;;;;;;5073697;28;20479;-67
2023/12/26 02:35:07;;;;;;;13.32;1.98;;;;;;;;;;5074475;28;20032;-66
2023/12/26 02:37:33;;;;;;;12.60;1.60;;;;;;;;;;5073759;28;20036;-67
2023/12/26 02:39:59;;;;;;;9.60;1.83;;;;;;;;;;5092888;28;20040;-67
2023/12/26 02:42:29;;;;;;;6.43;1.65;;;;;;;;;;5092310;28;20039;-67
2023/12/26 02:44:56;;;;;;;11.98;1.88;;;;;;;;;;5092075;28;20101;-67
2023/12/26 02:47:22;;;;;;;6.25;0.98;;;;;;;;;;5091955;28;20071;-66
2023/12/26 02:49:47;;;;;;;15.85;2.10;;;;;;;;;;5092365;28;20066;-66
2023/12/26 02:52:12;;;;;;;9.63;1.55;;;;;;;;;;5089336;28;20089;-67
2023/12/26 02:54:38;;;;;;;10.18;1.23;;;;;;;;;;5088173;28;20043;-67
2023/12/26 02:57:03;;;;;;;8.02;1.35;;;;;;;;;;5092259;28;20551;-67
2023/12/26 02:59:29;;;;;;;11.55;1.13;;;;;;;;;;5088692;28;20032;-66
2023/12/26 03:01:54;;;;;;;10.43;1.77;;;;;;;;;;5091001;28;20703;-67
2023/12/26 03:04:20;;;;;;;11.63;1.45;;;;;;;;;;5091522;28;20392;-67
2023/12/26 03:06:45;;;;;;;11.32;1.50;;;;;;;;;;5091779;28;20102;-67
2023/12/26 03:09:11;;;;;;;8.18;1.58;;;;;;;;;;5090942;28;20058;-67
2023/12/26 03:11:36;;;;;;;17.55;1.90;;;;;;;;;;5092076;28;20490;-66
2023/12/26 03:14:01;;;;;;;9.50;1.88;;;;;;;;;;5087769;28;20036;-67
2023/12/26 03:16:27;;;;;;;11.25;1.27;;;;;;;;;;5090247;28;20144;-66
2023/12/26 03:18:53;;;;;;;14.55;2.05;;;;;;;;;;5091038;28;20036;-66
2023/12/26 03:21:18;;;;;;;9.38;1.40;;;;;;;;;;5091728;28;20027;-67
2023/12/26 03:23:43;;;;;;;9.57;1.65;;;;;;;;;;5090830;28;20138;-67
2023/12/26 03:26:08;;;;;;;7.78;1.15;;;;;;;;;;5091602;28;20081;-66
2023/12/26 03:28:34;;;;;;;12.32;1.40;;;;;;;;;;5091176;28;20031;-67
2023/12/26 03:31:03;;;;;;;9.75;1.58;;;;;;;;;;5081673;28;20446;-66
2023/12/26 03:33:28;;;;;;;8.07;1.58;;;;;;;;;;5090916;28;20115;-67
2023/12/26 03:35:54;;;;;;;8.00;1.50;;;;;;;;;;5091110;28;20110;-67
2023/12/26 03:38:19;;;;;;;2.97;0.85;;;;;;;;;;5090512;28;20383;-66
2023/12/26 03:40:45;;;;;;;8.50;1.75;;;;;;;;;;5080406;28;20456;-66
2023/12/26 03:43:10;;;;;;;9.82;1.20;;;;;;;;;;5085180;28;20036;-66
2023/12/26 03:45:36;;;;;;;11.52;1.63;;;;;;;;;;5090337;28;20060;-67
2023/12/26 03:48:02;;;;;;;15.07;1.75;;;;;;;;;;5090555;28;20115;-66
2023/12/26 03:50:27;;;;;;;8.05;1.17;;;;;;;;;;5087229;28;20045;-67
2023/12/26 03:52:53;;;;;;;9.35;1.58;;;;;;;;;;5090215;28;20030;-68
2023/12/26 03:55:18;;;;;;;8.32;1.45;;;;;;;;;;5090453;28;20028;-67
2023/12/26 03:57:43;;;;;;;11.35;1.35;;;;;;;;;;5090406;28;20028;-66
2023/12/26 04:00:09;;;;;;;7.03;1.77;;;;;;;;;;5089385;28;20085;-67
2023/12/26 04:02:35;;;;;;;11.90;1.38;;;;;;;;;;5076799;28;20036;-66
2023/12/26 04:05:02;;;;;;;8.82;1.35;;;;;;;;;;5090686;28;20516;-66
2023/12/26 04:07:27;;;;;;;6.65;1.50;;;;;;;;;;5090255;28;20035;-66
2023/12/26 04:09:52;;;;;;;18.95;2.15;;;;;;;;;;5072781;28;20051;-66
2023/12/26 04:12:18;;;;;;;8.45;1.33;;;;;;;;;;5090357;28;20058;-67
2023/12/26 04:14:43;;;;;;;6.38;1.38;;;;;;;;;;5089797;28;20044;-67
2023/12/26 04:17:08;;;;;;;6.75;1.65;;;;;;;;;;5089338;28;20173;-68
2023/12/26 04:19:34;;;;;;;8.90;1.70;;;;;;;;;;5072330;28;20604;-66
2023/12/26 04:21:59;;;;;;;8.73;1.27;;;;;;;;;;5088627;28;20044;-66
2023/12/26 04:24:24;;;;;;;11.30;1.83;;;;;;;;;;5090187;28;20028;-67
2023/12/26 04:26:50;;;;;;;10.30;1.63;;;;;;;;;;5089897;28;20130;-67
2023/12/26 04:29:15;;;;;;;10.40;1.13;;;;;;;;;;5081578;28;20134;-67
2023/12/26 04:31:40;;;;;;;9.02;1.25;;;;;;;;;;5088727;28;20040;-66
2023/12/26 04:34:06;;;;;;;8.50;1.40;;;;;;;;;;5090414;28;20464;-67
2023/12/26 04:36:37;;;;;;;11.02;0.90;;;;;;;;;;5090000;28;20040;-66
2023/12/26 04:39:05;;;;;;;8.27;2.05;;;;;;;;;;5089980;28;20038;-66
2023/12/26 04:41:32;;;;;;;7.00;1.20;;;;;;;;;;5087444;28;20032;-66
2023/12/26 04:43:57;;;;;;;11.65;1.35;;;;;;;;;;5089206;28;20055;-67
2023/12/26 04:46:23;;;;;;;6.22;1.45;;;;;;;;;;5090414;28;20484;-66
2023/12/26 04:48:48;;;;;;;11.90;1.33;;;;;;;;;;5089680;28;20615;-67
2023/12/26 04:51:17;;;;;;;9.48;1.63;;;;;;;;;;5085728;28;20043;-67
2023/12/26 04:53:45;;;;;;;6.03;1.10;;;;;;;;;;5089590;28;20127;-66
2023/12/26 04:56:18;;;;;;;10.60;2.03;;;;;;;;;;5079416;28;20040;-66
2023/12/26 04:58:49;;;;;;;11.15;1.77;;;;;;;;;;5073054;28;20040;-67
2023/12/26 05:01:18;;;;;;;3.30;0.75;;;;;;;;;;5089376;28;20039;-67
2023/12/26 05:03:44;;;;;;;11.65;1.58;;;;;;;;;;5089929;28;20040;-67
2023/12/26 05:06:10;;;;;;;11.07;1.40;;;;;;;;;;5079670;28;20035;-67
2023/12/26 05:08:40;;;;;;;13.10;1.38;;;;;;;;;;5089768;28;20032;-67
2023/12/26 05:11:06;;;;;;;13.27;2.10;;;;;;;;;;5072307;28;20056;-67
2023/12/26 05:13:36;;;;;;;8.25;1.25;;;;;;;;;;5078570;28;20030;-66
2023/12/26 05:16:02;;;;;;;4.80;0.80;;;;;;;;;;5068929;28;20039;-66
2023/12/26 05:18:28;;;;;;;5.68;1.55;;;;;;;;;;5089758;28;20052;-67
2023/12/26 05:20:53;;;;;;;4.55;1.42;;;;;;;;;;5087024;28;20136;-66
2023/12/26 05:23:18;;;;;;;12.75;1.65;;;;;;;;;;5089515;28;20153;-66
2023/12/26 05:25:44;;;;;;;4.70;1.60;;;;;;;;;;5089807;28;20078;-67
2023/12/26 05:28:09;;;;;;;8.68;1.42;;;;;;;;;;5084023;28;20035;-67
2023/12/26 05:30:34;;;;;;;9.32;1.80;;;;;;;;;;5089657;28;20036;-67
2023/12/26 05:33:00;;;;;;;16.05;2.38;;;;;;;;;;5088875;28;20039;-67
2023/12/26 05:35:26;;;;;;;16.38;1.73;;;;;;;;;;5084302;28;20024;-67
2023/12/26 05:37:51;;;;;;;16.92;1.73;;;;;;;;;;5089765;28;20031;-67
2023/12/26 05:40:16;;;;;;;12.13;1.95;;;;;;;;;;5089630;28;20392;-67
2023/12/26 05:42:42;;;;;;;16.30;1.50;;;;;;;;;;5087442;28;20040;-67
2023/12/26 05:45:07;;;;;;;5.28;1.50;;;;;;;;;;5089406;28;20040;-67
2023/12/26 05:47:33;;;;;;;5.78;1.10;;;;;;;;;;5084902;28;20040;-67
2023/12/26 05:49:58;;;;;;;6.13;1.25;;;;;;;;;;5089339;28;20127;-67
2023/12/26 05:52:27;;;;;;;11.02;1.33;;;;;;;;;;5088757;28;20059;-67
2023/12/26 05:54:52;;;;;;;10.20;1.30;;;;;;;;;;5080013;28;20471;-67
2023/12/26 05:57:18;;;;;;;7.32;1.20;;;;;;;;;;5083363;28;20059;-66
2023/12/26 05:59:43;;;;;;;9.85;1.73;;;;;;;;;;5092792;28;20040;-67
2023/12/26 06:02:08;;;;;;;6.13;1.88;;;;;;;;;;5092764;28;20149;-66
2023/12/26 06:04:34;;;;;;;14.63;2.13;;;;;;;;;;5092661;28;20559;-67
2023/12/26 06:06:59;;;;;;;13.45;1.67;;;;;;;;;;5074551;28;20043;-67
2023/12/26 06:09:26;;;;;;;4.30;0.90;;;;;;;;;;5092877;28;20055;-67
2023/12/26 06:11:51;;;;;;;10.25;1.90;;;;;;;;;;5093280;28;20035;-67
2023/12/26 06:14:17;;;;;;;11.45;2.05;;;;;;;;;;5090813;28;20081;-67
2023/12/26 06:16:42;;;;;;;9.07;1.15;;;;;;;;;;5092708;28;20036;-67
2023/12/26 06:19:09;;;;;;;7.50;1.17;;;;;;;;;;5092772;28;20539;-66
2023/12/26 06:21:35;;;;;;;14.10;1.60;;;;;;;;;;5090968;28;20479;-66
2023/12/26 06:24:00;;;;;;;9.60;1.60;;;;;;;;;;5092397;28;20046;-66
2023/12/26 06:26:25;;;;;;;10.82;1.63;;;;;;;;;;5084042;28;20032;-67
2023/12/26 06:28:51;;;;;;;15.30;2.08;;;;;;;;;;5090080;28;20452;-67
2023/12/26 06:31:16;;;;;;;5.82;1.30;;;;;;;;;;5092055;28;20478;-67
2023/12/26 06:33:41;;;;;;;10.88;1.60;;;;;;;;;;5086481;28;20036;-66
2023/12/26 06:36:07;;;;;;;13.82;1.70;;;;;;;;;;5085374;28;20040;-66
2023/12/26 06:38:32;;;;;;;9.63;1.48;;;;;;;;;;5089058;28;20157;-66
2023/12/26 06:40:58;;;;;;;11.68;1.80;;;;;;;;;;5089902;28;20051;-66
2023/12/26 06:43:23;;;;;;;4.82;1.23;;;;;;;;;;5092038;28;20043;-66
2023/12/26 06:45:48;;;;;;;9.32;1.42;;;;;;;;;;5092249;28;20052;-66
2023/12/26 06:48:16;;;;;;;6.97;1.20;;;;;;;;;;5091824;28;20094;-66
2023/12/26 06:50:42;;;;;;;10.38;1.70;;;;;;;;;;5091780;28;20036;-67
2023/12/26 06:53:07;;;;;;;11.63;1.92;;;;;;;;;;5091991;28;20032;-66
2023/12/26 06:55:33;;;;;;;4.88;1.35;;;;;;;;;;5092082;28;20057;-67
2023/12/26 06:57:58;;;;;;;9.75;1.25;;;;;;;;;;5091828;28;20036;-67
2023/12/26 07:00:24;;;;;;;8.75;1.50;;;;;;;;;;5092247;28;20031;-66
2023/12/26 07:02:49;;;;;;;11.93;1.60;;;;;;;;;;5073500;28;20039;-67
2023/12/26 07:05:15;;;;;;;4.65;1.27;;;;;;;;;;5073821;28;20028;-66
2023/12/26 07:07:40;;;;;;;8.77;1.17;;;;;;;;;;5091190;28;20544;-66
2023/12/26 07:10:06;;;;;;;9.43;1.58;;;;;;;;;;5084487;28;20507;-67
2023/12/26 07:12:31;;;;;;;6.22;1.63;;;;;;;;;;5091712;28;20482;-66
2023/12/26 07:14:56;;;;;;;8.80;1.10;;;;;;;;;;5091506;28;20172;-67
2023/12/26 07:17:22;;;;;;;6.07;1.20;;;;;;;;;;5091608;28;20032;-65
2023/12/26 07:19:47;;;;;;;11.15;1.77;;;;;;;;;;5091160;28;20365;-67
2023/12/26 07:22:12;;;;;;;5.78;1.38;;;;;;;;;;5090513;28;20631;-67
2023/12/26 07:24:38;;;;;;;5.85;1.50;;;;;;;;;;5091572;28;20040;-67
2023/12/26 07:27:03;;;;;;;6.55;1.10;;;;;;;;;;5091473;28;20032;-67
2023/12/26 07:29:28;;;;;;;9.27;1.48;;;;;;;;;;5091144;28;20487;-67
2023/12/26 07:31:54;;;;;;;6.07;1.10;;;;;;;;;;5091539;28;20039;-67
2023/12/26 07:34:20;;;;;;;8.32;1.33;;;;;;;;;;5073727;28;20653;-66
2023/12/26 07:36:45;;;;;;;13.82;1.58;;;;;;;;;;5074453;28;20036;-67
2023/12/26 07:39:11;;;;;;;13.80;2.33;;;;;;;;;;5091138;28;20460;-67
2023/12/26 07:41:36;;;;;;;9.65;1.60;;;;;;;;;;5091259;28;20391;-67
2023/12/26 07:44:02;;;;;;;11.20;1.60;;;;;;;;;;5089501;28;20044;-66
2023/12/26 07:46:27;;;;;;;10.82;1.20;;;;;;;;;;5087581;28;20070;-68
2023/12/26 07:48:52;;;;;;;14.10;1.67;;;;;;;;;;5090600;28;20031;-66
2023/12/26 07:51:18;;;;;;;10.95;1.20;;;;;;;;;;5090152;28;20552;-67
2023/12/26 07:53:43;;;;;;;10.48;1.50;;;;;;;;;;5091110;28;20031;-67
2023/12/26 07:56:09;;;;;;;14.40;1.58;;;;;;;;;;5091092;28;20379;-67
2023/12/26 07:58:35;;;;;;;6.25;1.27;;;;;;;;;;5089686;28;20043;-67
2023/12/26 08:01:01;;;;;;;12.00;1.58;;;;;;;;;;5090389;28;20043;-67
2023/12/26 08:03:26;;;;;;;9.93;1.55;;;;;;;;;;5091168;28;20040;-67
2023/12/26 08:05:52;;;;;;;7.90;1.55;;;;;;;;;;5090143;28;20089;-67
2023/12/26 08:08:17;;;;;;;9.85;2.15;;;;;;;;;;5090971;28;20470;-66
2023/12/26 08:10:44;;;;;;;4.85;0.98;;;;;;;;;;5091188;28;20527;-67
2023/12/26 08:13:10;;;;;;;12.00;1.50;;;;;;;;;;5090459;28;20036;-68
2023/12/26 08:15:35;;;;;;;13.15;1.58;;;;;;;;;;5090692;28;20031;-67
2023/12/26 08:18:00;;;;;;;15.32;2.25;;;;;;;;;;5089069;28;20032;-67
2023/12/26 08:20:26;;;;;;;13.93;1.90;;;;;;;;;;5090199;28;20039;-66
2023/12/26 08:22:52;;;;;;;11.63;1.10;;;;;;;;;;5089385;28;20080;-67
2023/12/26 08:25:17;;;;;;;8.13;2.40;;;;;;;;;;5079087;28;20089;-67
2023/12/26 08:27:43;;;;;;;11.57;1.55;;;;;;;;;;5089246;28;20040;-67
2023/12/26 08:30:08;;;;;;;9.60;1.90;;;;;;;;;;5090631;28;20024;-67
2023/12/26 08:32:34;;;;;;;9.68;1.45;;;;;;;;;;5088650;28;20039;-67
2023/12/26 08:35:00;;;;;;;5.90;1.13;;;;;;;;;;5089997;28;20051;-67
2023/12/26 08:37:25;;;;;;;6.47;1.05;;;;;;;;;;5089116;28;20024;-67
2023/12/26 08:39:51;;;;;;;11.68;1.25;;;;;;;;;;5079742;28;20032;-67
2023/12/26 08:42:16;;;;;;;8.40;1.35;;;;;;;;;;5090077;28;20476;-67
2023/12/26 08:44:41;;;;;;;7.85;1.48;;;;;;;;;;5089506;28;20056;-67
2023/12/26 08:47:07;;;;;;;8.95;1.60;;;;;;;;;;5083914;28;20044;-66
2023/12/26 08:49:32;;;;;;;6.57;1.60;;;;;;;;;;5088219;28;20036;-66
2023/12/26 08:51:58;;;;;;;5.47;1.42;;;;;;;;;;5090479;28;20028;-66
2023/12/26 08:54:23;;;;;;;13.25;1.95;;;;;;;;;;5086567;28;20111;-66
2023/12/26 08:56:49;;;;;;;11.57;1.90;;;;;;;;;;5090119;28;20044;-67
2023/12/26 08:59:14;;;;;;;11.27;1.85;;;;;;;;;;5090196;28;20048;-67
2023/12/26 09:01:39;;;;;;;10.13;1.75;;;;;;;;;;5089687;28;20039;-66
2023/12/26 09:04:06;;;;;;;10.60;1.50;;;;;;;;;;5089741;28;20039;-66
2023/12/26 09:06:32;;;;;;;16.45;1.58;;;;;;;;;;5071439;28;20028;-66
2023/12/26 09:08:57;;;;;;;13.35;2.13;;;;;;;;;;5089127;28;20061;-67
2023/12/26 09:11:23;;;;;;;7.95;1.77;;;;;;;;;;5089228;28;20044;-66
2023/12/26 09:13:49;;;;;;;10.38;1.65;;;;;;;;;;5089045;28;20044;-66
2023/12/26 09:16:14;;;;;;;8.18;1.70;;;;;;;;;;5090020;28;20043;-66
2023/12/26 09:18:40;;;;;;;11.18;1.95;;;;;;;;;;5089834;28;20040;-66
2023/12/26 09:21:05;;;;;;;10.07;1.80;;;;;;;;;;5089424;28;20032;-66
2023/12/26 09:23:31;;;;;;;6.93;1.42;;;;;;;;;;5086974;28;20048;-66
2023/12/26 09:25:56;;;;;;;11.90;2.20;;;;;;;;;;5087161;28;20047;-66
2023/12/26 09:28:22;;;;;;;11.80;2.20;;;;;;;;;;5089721;28;20031;-66
2023/12/26 09:30:48;;;;;;;8.10;1.85;;;;;;;;;;5092171;28;20040;-67
2023/12/26 09:33:14;;;;;;;7.93;1.85;;;;;;;;;;5093456;28;20117;-66
2023/12/26 09:35:39;;;;;;;17.60;2.92;;;;;;;;;;5093421;28;20031;-67
2023/12/26 09:38:04;;;;;;;27.05;7.95;;;;;;;;;;5074881;28;20030;-67
2023/12/26 09:40:29;;;;;;;10.15;2.50;;;;;;;;;;5092397;28;20115;-66
2023/12/26 09:43:00;;;;;;;17.30;3.72;;;;;;;;;;5092664;28;20031;-66
2023/12/26 09:45:26;;;;;;;15.23;3.28;;;;;;;;;;5075016;28;20048;-67
2023/12/26 09:47:51;;;;;;;21.85;3.17;;;;;;;;;;5092221;28;20661;-67
2023/12/26 09:50:17;;;;;;;14.38;2.83;;;;;;;;;;5092863;28;20024;-66
2023/12/26 09:52:58;;;;;;;10.80;2.35;;;;;;;;;;5092846;28;20102;-67
2023/12/26 09:55:25;;;;;;;14.30;2.63;;;;;;;;;;5094649;28;20119;-66
2023/12/26 09:57:50;;;;;;;14.02;3.22;;;;;;;;;;5057005;28;20438;-67
2023/12/26 10:00:16;;;;;;;6.43;1.77;;;;;;;;;;5091653;28;20101;-67
2023/12/26 10:02:42;;;;;;;13.13;2.97;;;;;;;;;;5075730;28;20046;-67
2023/12/26 10:05:08;;;;;;;12.10;2.88;;;;;;;;;;5091162;28;20490;-67
2023/12/26 10:07:33;;;;;;;13.90;2.67;;;;;;;;;;5078314;28;20036;-67
2023/12/26 10:09:58;;;;;;;10.30;1.92;;;;;;;;;;5091506;28;20123;-67
2023/12/26 10:12:29;;;;;;;9.07;2.08;;;;;;;;;;5091575;28;20391;-67
2023/12/26 10:14:58;;;;;;;8.43;2.13;;;;;;;;;;5077203;28;20441;-67
2023/12/26 10:17:24;;;;;;;6.72;2.08;;;;;;;;;;5091653;28;20696;-66
2023/12/26 10:19:49;;;;;;;11.43;2.35;;;;;;;;;;5075490;28;20036;-66
2023/12/26 10:22:15;;;;;;;11.45;2.35;;;;;;;;;;5091661;28;20024;-67
2023/12/26 10:24:40;;;;;;;9.93;1.98;;;;;;;;;;5091320;28;20063;-67
2023/12/26 10:27:05;;;;;;;10.57;1.90;;;;;;;;;;5091357;28;20053;-67
2023/12/26 10:29:31;;;;;;;9.93;2.67;;;;;;;;;;5091962;28;20043;-67
2023/12/26 10:32:00;;;;;;;10.73;2.78;;;;;;;;;;5091850;28;20107;-67
2023/12/26 10:34:28;;;;;;;8.15;2.20;;;;;;;;;;5056982;28;20036;-66
2023/12/26 10:36:54;;;;;;;10.77;2.78;;;;;;;;;;5091005;28;20480;-67
2023/12/26 10:39:20;;;;;;;26.77;9.10;;;;;;;;;;5091931;28;20039;-67
2023/12/26 10:41:47;;;;;;;55.72;26.77;;;;;;;;;;5091255;28;20040;-67
2023/12/26 10:44:17;;;;;;;61.45;28.40;;;;;;;;;;5072658;28;20059;-67
2023/12/26 10:46:43;;;;;;;26.25;11.65;;;;;;;;;;5071931;28;20028;-67
2023/12/26 10:49:21;;;;;;;24.33;10.35;;;;;;;;;;5068825;28;20032;-67
2023/12/26 10:51:48;;;;;;;24.63;11.25;;;;;;;;;;5074065;28;20047;-67
2023/12/26 10:54:21;;;;;;;16.70;5.43;;;;;;;;;;5088945;28;20082;-67
2023/12/26 10:56:50;;;;;;;5.20;2.33;;;;;;;;;;5084274;28;20399;-67
2023/12/26 10:59:30;;;;;;;12.43;3.72;;;;;;;;;;5089484;28;20119;-66
2023/12/26 11:01:56;;;;;;;15.20;4.22;;;;;;;;;;5084434;28;20039;-67
2023/12/26 11:04:21;;;;;;;15.25;4.63;;;;;;;;;;5066867;28;20032;-67
2023/12/26 11:06:46;;;;;;;18.27;5.80;;;;;;;;;;5088510;28;20360;-67
2023/12/26 11:09:12;;;;;;;12.20;3.50;;;;;;;;;;5071395;28;20124;-67
2023/12/26 11:11:38;;;;;;;22.73;3.50;;;;;;;;;;5088716;28;20036;-67
2023/12/26 11:14:05;;;;;;;13.77;3.40;;;;;;;;;;5069460;28;20036;-67
2023/12/26 11:16:30;;;;;;;20.88;5.10;;;;;;;;;;5088679;28;20036;-66
2023/12/26 11:18:56;;;;;;;93.82;26.23;;;;;;;;;;5087242;28;20054;-67
2023/12/26 11:21:21;;;;;;;104.05;26.30;;;;;;;;;;5088825;28;20085;-66
2023/12/26 11:23:48;;;;;;;65.68;15.52;;;;;;;;;;5086138;28;20032;-67
2023/12/26 11:26:14;;;;;;;35.50;9.32;;;;;;;;;;5088863;28;20043;-67
2023/12/26 11:28:42;;;;;;;42.67;11.85;;;;;;;;;;5067008;28;20024;-67
2023/12/26 11:31:09;;;;;;;29.10;8.98;;;;;;;;;;5071427;28;20467;-67
2023/12/26 11:33:34;;;;;;;13.65;4.32;;;;;;;;;;5078631;28;20044;-68
2023/12/26 11:36:00;;;;;;;9.98;2.88;;;;;;;;;;5085935;28;20024;-66
2023/12/26 11:38:25;;;;;;;15.07;3.50;;;;;;;;;;5074535;28;20059;-66
2023/12/26 11:40:50;;;;;;;6.15;2.35;;;;;;;;;;5070999;28;20115;-67
2023/12/26 11:43:16;;;;;;;6.38;1.80;;;;;;;;;;5090917;28;20581;-67
2023/12/26 11:45:42;;;;;;;11.45;1.98;;;;;;;;;;5049733;28;20512;-67
2023/12/26 11:48:08;;;;;;;9.82;1.30;;;;;;;;;;5047976;28;20119;-67
2023/12/26 11:50:33;;;;;;;10.77;1.40;;;;;;;;;;5048388;28;20048;-67
2023/12/26 11:52:58;;;;;;;9.23;1.63;;;;;;;;;;5041721;28;20061;-67
2023/12/26 11:55:24;;;;;;;5.82;1.42;;;;;;;;;;5048823;28;20056;-67
2023/12/26 11:57:49;;;;;;;3.88;1.70;;;;;;;;;;5048076;28;20472;-67
2023/12/26 12:00:14;;;;;;;8.98;1.75;;;;;;;;;;5046541;28;20033;-68
2023/12/26 12:02:40;;;;;;;7.28;1.38;;;;;;;;;;5047932;28;20053;-68
2023/12/26 12:05:06;;;;;;;10.77;1.50;;;;;;;;;;5046903;28;20454;-67
2023/12/26 12:07:31;;;;;;;12.32;1.90;;;;;;;;;;5049209;28;20041;-67
2023/12/26 12:10:09;;;;;;;15.18;1.98;;;;;;;;;;5045002;28;20128;-66
2023/12/26 12:12:34;;;;;;;5.05;1.70;;;;;;;;;;5047863;28;20037;-66
2023/12/26 12:14:59;;;;;;;7.03;2.70;;;;;;;;;;5047884;28;20420;-67
2023/12/26 12:17:25;;;;;;;7.25;1.98;;;;;;;;;;5046548;28;20040;-67
2023/12/26 12:19:51;;;;;;;10.18;2.03;;;;;;;;;;5044027;28;20408;-67
2023/12/26 12:22:23;;;;;;;11.80;1.70;;;;;;;;;;5049400;28;20029;-66
2023/12/26 12:24:49;;;;;;;8.45;1.70;;;;;;;;;;5047292;28;20100;-66
2023/12/26 12:27:14;;;;;;;10.02;1.70;;;;;;;;;;5045518;28;20128;-67
2023/12/26 12:29:59;;;;;;;6.55;1.45;;;;;;;;;;5048415;28;20037;-67
2023/12/26 12:32:35;;;;;;;11.18;2.03;;;;;;;;;;5045039;28;20378;-66
2023/12/26 12:35:13;;;;;;;6.97;1.67;;;;;;;;;;5042333;28;20044;-67
2023/12/26 12:37:38;;;;;;;14.63;1.98;;;;;;;;;;5047874;28;20047;-66
2023/12/26 12:40:05;;;;;;;12.35;1.63;;;;;;;;;;5048226;28;20040;-67
2023/12/26 12:42:33;;;;;;;8.32;1.80;;;;;;;;;;5046454;28;20126;-66
2023/12/26 12:44:58;;;;;;;9.55;1.88;;;;;;;;;;5069720;28;20072;-66
2023/12/26 12:47:25;;;;;;;9.23;1.70;;;;;;;;;;5088982;28;20076;-66
2023/12/26 12:49:52;;;;;;;10.00;1.67;;;;;;;;;;5089443;28;20119;-67
2023/12/26 12:52:17;;;;;;;13.90;2.28;;;;;;;;;;5068616;28;20043;-67
2023/12/26 12:54:42;;;;;;;5.30;2.45;;;;;;;;;;5085865;28;20048;-67
2023/12/26 12:57:08;;;;;;;9.13;1.90;;;;;;;;;;5087984;28;20088;-67
2023/12/26 12:59:33;;;;;;;9.25;1.85;;;;;;;;;;5086820;28;20525;-66
2023/12/26 13:01:58;;;;;;;7.93;2.03;;;;;;;;;;5086749;28;20452;-66
2023/12/26 13:04:24;;;;;;;13.40;2.70;;;;;;;;;;5090786;28;20055;-67
2023/12/26 13:06:49;;;;;;;10.70;2.03;;;;;;;;;;5093152;28;20088;-66
2023/12/26 13:09:15;;;;;;;17.15;2.55;;;;;;;;;;5093153;28;20472;-67
2023/12/26 13:11:40;;;;;;;15.30;2.35;;;;;;;;;;5092040;28;20097;-67
2023/12/26 13:14:05;;;;;;;7.45;1.60;;;;;;;;;;5079567;28;20075;-66
2023/12/26 13:16:31;;;;;;;13.32;1.70;;;;;;;;;;5093576;28;20039;-66
2023/12/26 13:18:57;;;;;;;11.45;1.75;;;;;;;;;;5090866;28;20106;-66
2023/12/26 13:21:22;;;;;;;10.80;2.15;;;;;;;;;;5092970;28;20460;-67
2023/12/26 13:23:47;;;;;;;8.48;1.63;;;;;;;;;;5088833;28;20093;-66
2023/12/26 13:26:13;;;;;;;10.85;1.50;;;;;;;;;;5068285;28;20115;-67
2023/12/26 13:28:41;;;;;;;7.43;1.60;;;;;;;;;;5088807;28;20047;-66
2023/12/26 13:31:06;;;;;;;4.18;1.35;;;;;;;;;;5092630;28;20078;-66
2023/12/26 13:33:35;;;;;;;4.88;1.58;;;;;;;;;;5088450;28;20036;-66
2023/12/26 13:36:01;;;;;;;7.05;1.38;;;;;;;;;;5091617;28;20119;-66
2023/12/26 13:38:26;;;;;;;4.82;1.70;;;;;;;;;;5071382;28;20466;-66
2023/12/26 13:40:51;;;;;;;7.25;1.80;;;;;;;;;;5088417;28;20028;-65
2023/12/26 13:43:17;;;;;;;9.68;1.50;;;;;;;;;;5088486;28;20040;-67
2023/12/26 13:45:42;;;;;;;10.85;2.00;;;;;;;;;;5090334;28;20047;-66
2023/12/26 13:48:07;;;;;;;6.57;1.17;;;;;;;;;;5082051;28;20020;-66
2023/12/26 13:50:32;;;;;;;7.35;1.50;;;;;;;;;;5093108;28;20062;-66
2023/12/26 13:52:58;;;;;;;6.72;1.20;;;;;;;;;;5088288;28;20041;-67
2023/12/26 13:55:23;;;;;;;7.85;2.17;;;;;;;;;;5089177;28;20082;-66
2023/12/26 13:57:49;;;;;;;8.77;2.42;;;;;;;;;;5083904;28;20089;-66
2023/12/26 14:00:14;;;;;;;17.20;2.40;;;;;;;;;;5092482;28;20036;-67
2023/12/26 14:02:39;;;;;;;12.90;2.50;;;;;;;;;;5087238;28;20081;-66
2023/12/26 14:05:05;;;;;;;12.65;2.78;;;;;;;;;;5074693;28;20050;-67
2023/12/26 14:07:31;;;;;;;9.68;2.13;;;;;;;;;;5075139;28;20063;-67
2023/12/26 14:09:57;;;;;;;10.25;2.10;;;;;;;;;;5093013;28;20024;-66
2023/12/26 14:12:22;;;;;;;12.88;2.47;;;;;;;;;;5093312;28;20235;-66
2023/12/26 14:14:47;;;;;;;10.05;2.15;;;;;;;;;;5092833;28;20147;-66
2023/12/26 14:17:12;;;;;;;9.77;2.13;;;;;;;;;;5092326;28;20056;-65
2023/12/26 14:19:38;;;;;;;11.75;1.92;;;;;;;;;;5093147;28;20447;-67
2023/12/26 14:22:03;;;;;;;11.50;1.88;;;;;;;;;;5089876;28;20567;-67
2023/12/26 14:24:29;;;;;;;9.27;2.28;;;;;;;;;;5092851;28;20024;-66
2023/12/26 14:26:55;;;;;;;10.45;1.85;;;;;;;;;;5092877;28;20039;-66
2023/12/26 14:29:21;;;;;;;9.85;1.48;;;;;;;;;;5093066;28;20070;-65